Time;durP1;ratioP1;P1;durP2;ratioP2;P2;SDS_P1;SDS_P2;PMS_P1;PMS_P2;Temp;Humidity;BMP_temperature;BMP_pressure;BME280_temperature;BME280_humidity;BME280_pressure;Samples;Min_cycle;Max_cycle;Signal;HPM_P1;HPM_P2
2024/01/17 00:00:26;;;;;;;0.00;0.00;;;1.90;70.80;;;;;;5083980;28;20569;-35
2024/01/17 00:02:53;;;;;;;0.00;0.00;;;1.90;70.70;;;;;;5085247;28;21069;-35
2024/01/17 00:05:20;;;;;;;0.00;0.00;;;1.90;70.70;;;;;;5085249;28;20543;-35
2024/01/17 00:07:48;;;;;;;0.00;0.00;;;1.90;70.70;;;;;;5083523;28;20217;-35
2024/01/17 00:10:16;;;;;;;0.00;0.00;;;1.90;70.70;;;;;;5085517;28;20214;-35
2024/01/17 00:12:43;;;;;;;0.00;0.00;;;1.90;70.70;;;;;;5085339;28;20744;-35
2024/01/17 00:15:10;;;;;;;0.00;0.00;;;1.90;70.70;;;;;;5083994;28;20573;-35
2024/01/17 00:17:40;;;;;;;0.00;0.00;;;1.90;70.60;;;;;;5083705;28;20206;-35
2024/01/17 00:20:08;;;;;;;0.00;0.00;;;1.90;70.70;;;;;;5083634;28;20211;-36
2024/01/17 00:22:40;;;;;;;0.00;0.00;;;1.80;70.60;;;;;;5067390;28;20205;-35
2024/01/17 00:25:13;;;;;;;0.00;0.00;;;1.90;70.70;;;;;;5067484;28;20234;-35
2024/01/17 00:27:40;;;;;;;0.00;0.00;;;1.80;70.60;;;;;;5083174;28;20595;-34
2024/01/17 00:30:12;;;;;;;0.00;0.00;;;1.80;70.70;;;;;;5085040;28;20198;-35
2024/01/17 00:32:39;;;;;;;0.00;0.00;;;1.80;70.70;;;;;;5083455;28;20293;-35
2024/01/17 00:35:10;;;;;;;0.00;0.00;;;1.80;70.70;;;;;;5085204;28;20191;-35
2024/01/17 00:37:38;;;;;;;0.00;0.00;;;1.80;70.70;;;;;;5084832;28;20202;-35
2024/01/17 00:40:08;;;;;;;0.00;0.00;;;1.80;70.60;;;;;;5083029;28;20526;-35
2024/01/17 00:42:40;;;;;;;0.00;0.00;;;1.80;70.70;;;;;;5084887;28;20255;-35
2024/01/17 00:45:08;;;;;;;0.00;0.00;;;1.80;70.60;;;;;;5084941;28;20206;-35
2024/01/17 00:47:38;;;;;;;0.00;0.00;;;1.80;70.70;;;;;;5084424;28;20325;-35
2024/01/17 00:50:06;;;;;;;0.00;0.00;;;1.80;70.70;;;;;;5084690;28;20203;-35
2024/01/17 00:52:33;;;;;;;0.00;0.00;;;1.80;70.70;;;;;;5084469;28;20210;-35
2024/01/17 00:55:00;;;;;;;0.00;0.00;;;1.80;70.70;;;;;;5084647;28;20191;-36
2024/01/17 00:57:27;;;;;;;0.00;0.00;;;1.80;70.70;;;;;;5083155;28;20361;-36
2024/01/17 00:59:57;;;;;;;0.00;0.00;;;1.80;70.70;;;;;;5084573;28;20191;-36
2024/01/17 01:02:24;;;;;;;0.00;0.00;;;1.80;70.70;;;;;;5083078;28;20641;-35
2024/01/17 01:04:51;;;;;;;0.00;0.00;;;1.80;70.60;;;;;;5084610;28;20677;-35
2024/01/17 01:07:21;;;;;;;0.00;0.00;;;1.80;70.70;;;;;;5084685;28;20207;-35
2024/01/17 01:09:50;;;;;;;0.00;0.00;;;1.80;70.70;;;;;;5084840;28;20206;-35
2024/01/17 01:12:23;;;;;;;0.00;0.00;;;1.80;70.70;;;;;;5087338;28;20697;-35
2024/01/17 01:14:53;;;;;;;0.00;0.00;;;1.70;70.60;;;;;;5087612;28;20264;-35
2024/01/17 01:17:20;;;;;;;0.00;0.00;;;1.70;70.60;;;;;;5088901;28;20195;-36
2024/01/17 01:19:47;;;;;;;0.00;0.00;;;1.70;70.60;;;;;;5088494;28;20198;-37
2024/01/17 01:22:17;;;;;;;0.00;0.00;;;1.70;70.60;;;;;;5087008;28;20195;-37
2024/01/17 01:24:47;;;;;;;0.00;0.00;;;1.70;70.60;;;;;;5086772;28;20210;-36
2024/01/17 01:27:16;;;;;;;0.00;0.00;;;1.70;70.60;;;;;;5088666;28;20587;-36
2024/01/17 01:29:43;;;;;;;0.00;0.00;;;1.70;70.60;;;;;;5088193;28;20309;-36
2024/01/17 01:32:10;;;;;;;0.00;0.00;;;1.70;70.60;;;;;;5088283;28;20216;-36
2024/01/17 01:34:40;;;;;;;0.00;0.00;;;1.70;70.60;;;;;;5086818;28;20230;-35
2024/01/17 01:37:07;;;;;;;0.00;0.00;;;1.70;70.60;;;;;;5086919;28;20191;-36
2024/01/17 01:39:34;;;;;;;0.00;0.00;;;1.70;70.50;;;;;;5088082;28;20206;-36
2024/01/17 01:42:02;;;;;;;0.00;0.00;;;1.70;70.50;;;;;;5088002;28;20199;-36
2024/01/17 01:44:29;;;;;;;0.00;0.00;;;1.60;70.50;;;;;;5087892;28;20203;-35
2024/01/17 01:46:58;;;;;;;0.00;0.00;;;1.60;70.50;;;;;;5088279;28;20293;-35
2024/01/17 01:49:28;;;;;;;0.00;0.00;;;1.60;70.50;;;;;;5086364;28;20860;-35
2024/01/17 01:51:55;;;;;;;0.00;0.00;;;1.60;70.50;;;;;;5069677;28;20302;-35
2024/01/17 01:54:28;;;;;;;0.00;0.00;;;1.60;70.50;;;;;;5087523;28;20227;-35
2024/01/17 01:56:59;;;;;;;0.00;0.00;;;1.60;70.50;;;;;;5087987;28;20759;-35
2024/01/17 01:59:32;;;;;;;0.00;0.00;;;1.60;70.50;;;;;;5087532;28;20264;-35
2024/01/17 02:02:04;;;;;;;0.00;0.00;;;1.60;70.50;;;;;;5087689;28;20203;-35
2024/01/17 02:04:35;;;;;;;0.00;0.00;;;1.60;70.50;;;;;;5086149;28;20199;-35
2024/01/17 02:07:05;;;;;;;0.00;0.00;;;1.50;70.40;;;;;;5086581;28;20983;-35
2024/01/17 02:09:33;;;;;;;0.00;0.00;;;1.50;70.40;;;;;;5087539;28;20605;-36
2024/01/17 02:12:01;;;;;;;0.00;0.00;;;1.50;70.40;;;;;;5087866;28;20289;-35
2024/01/17 02:14:31;;;;;;;0.00;0.00;;;1.50;70.40;;;;;;5069400;28;20226;-36
2024/01/17 02:16:58;;;;;;;0.00;0.00;;;1.50;70.40;;;;;;5088341;28;20592;-35
2024/01/17 02:19:26;;;;;;;0.00;0.00;;;1.50;70.50;;;;;;5087527;28;20199;-36
2024/01/17 02:21:55;;;;;;;0.00;0.00;;;1.50;70.50;;;;;;5086826;28;20290;-36
2024/01/17 02:24:28;;;;;;;0.00;0.00;;;1.50;70.50;;;;;;5085657;28;20206;-35
2024/01/17 02:26:59;;;;;;;0.00;0.00;;;1.50;70.60;;;;;;5087493;28;20226;-36
2024/01/17 02:29:28;;;;;;;0.00;0.00;;;1.50;71.30;;;;;;5085664;28;20202;-36
2024/01/17 02:31:56;;;;;;;0.00;0.00;;;1.50;70.50;;;;;;5086172;28;20248;-35
2024/01/17 02:34:29;;;;;;;0.00;0.00;;;1.50;70.50;;;;;;5086295;28;20234;-35
2024/01/17 02:36:56;;;;;;;0.00;0.00;;;1.50;70.50;;;;;;5085804;28;20205;-35
2024/01/17 02:39:24;;;;;;;0.00;0.00;;;1.50;70.50;;;;;;5069008;28;20195;-35
2024/01/17 02:41:54;;;;;;;0.00;0.00;;;1.40;70.50;;;;;;5086834;28;20227;-35
2024/01/17 02:44:26;;;;;;;0.00;0.00;;;1.40;70.50;;;;;;5085504;28;20226;-35
2024/01/17 02:46:53;;;;;;;0.00;0.00;;;1.40;70.60;;;;;;5085319;28;20207;-35
2024/01/17 02:49:22;;;;;;;0.00;0.00;;;1.50;70.50;;;;;;5085347;28;20557;-35
2024/01/17 02:51:52;;;;;;;0.00;0.00;;;1.40;70.50;;;;;;5086645;28;20317;-36
2024/01/17 02:54:21;;;;;;;0.00;0.00;;;1.40;70.50;;;;;;5084978;28;20249;-35
2024/01/17 02:56:51;;;;;;;0.00;0.00;;;1.40;70.60;;;;;;5086672;28;20199;-37
2024/01/17 02:59:21;;;;;;;0.00;0.00;;;1.40;70.50;;;;;;5086393;28;20233;-37
2024/01/17 03:01:53;;;;;;;0.00;0.00;;;1.40;70.50;;;;;;5086445;28;20207;-36
2024/01/17 03:04:20;;;;;;;0.00;0.00;;;1.40;70.50;;;;;;5086680;28;20231;-36
2024/01/17 03:06:54;;;;;;;0.00;0.00;;;1.40;70.50;;;;;;5085270;28;20209;-37
2024/01/17 03:09:24;;;;;;;0.00;0.00;;;1.40;70.50;;;;;;5085329;28;20195;-37
2024/01/17 03:11:53;;;;;;;0.00;0.00;;;1.50;70.60;;;;;;5086923;28;20673;-36
2024/01/17 03:14:20;;;;;;;0.00;0.00;;;1.40;70.50;;;;;;5084736;28;20724;-36
2024/01/17 03:16:50;;;;;;;0.00;0.00;;;1.40;70.60;;;;;;5068717;28;20199;-36
2024/01/17 03:19:17;;;;;;;0.00;0.00;;;1.40;70.60;;;;;;5084887;28;20203;-36
2024/01/17 03:21:49;;;;;;;0.00;0.00;;;1.50;70.60;;;;;;5086446;28;20551;-36
2024/01/17 03:24:16;;;;;;;0.00;0.00;;;1.50;70.60;;;;;;5086051;28;20415;-35
2024/01/17 03:26:44;;;;;;;0.00;0.00;;;1.50;70.60;;;;;;5084422;28;20243;-38
2024/01/17 03:29:13;;;;;;;0.00;0.00;;;1.50;70.60;;;;;;5086061;28;20201;-36
2024/01/17 03:31:43;;;;;;;0.00;0.00;;;1.50;70.60;;;;;;5084822;28;20206;-35
2024/01/17 03:34:13;;;;;;;0.00;0.00;;;1.50;70.60;;;;;;5085097;28;20831;-36
2024/01/17 03:36:40;;;;;;;0.00;0.00;;;1.50;70.60;;;;;;5085569;28;20669;-36
2024/01/17 03:39:13;;;;;;;0.00;0.00;;;1.50;70.60;;;;;;5084609;28;20568;-36
2024/01/17 03:41:40;;;;;;;0.00;0.00;;;1.50;70.60;;;;;;5084433;28;20199;-36
2024/01/17 03:44:07;;;;;;;0.00;0.00;;;1.50;70.50;;;;;;5084176;28;20645;-35
2024/01/17 03:46:35;;;;;;;0.00;0.00;;;1.50;70.50;;;;;;5084367;28;20199;-35
2024/01/17 03:49:02;;;;;;;0.00;0.00;;;1.50;70.50;;;;;;5085609;28;20227;-35
2024/01/17 03:51:30;;;;;;;0.00;0.00;;;1.50;70.50;;;;;;5085709;28;20246;-35
2024/01/17 03:53:59;;;;;;;0.00;0.00;;;1.50;70.50;;;;;;5083893;28;20309;-35
2024/01/17 03:56:27;;;;;;;0.00;0.00;;;1.50;70.50;;;;;;5085573;28;20476;-35
2024/01/17 03:58:54;;;;;;;0.00;0.00;;;1.50;70.50;;;;;;5085458;28;20248;-36
2024/01/17 04:01:21;;;;;;;0.00;0.00;;;1.40;70.40;;;;;;5085597;28;20222;-35
2024/01/17 04:03:49;;;;;;;0.00;0.00;;;1.50;70.50;;;;;;5085569;28;20203;-35
2024/01/17 04:06:18;;;;;;;0.00;0.00;;;1.40;70.40;;;;;;5083941;28;20199;-36
2024/01/17 04:08:48;;;;;;;0.00;0.00;;;1.40;70.40;;;;;;5085225;28;20202;-35
2024/01/17 04:11:18;;;;;;;0.00;0.00;;;1.40;70.30;;;;;;5085635;28;20215;-36
2024/01/17 04:13:47;;;;;;;0.00;0.00;;;1.40;70.30;;;;;;5084103;28;20223;-35
2024/01/17 04:16:15;;;;;;;0.00;0.00;;;1.40;70.30;;;;;;5083574;28;20248;-34
2024/01/17 04:18:42;;;;;;;0.00;0.00;;;1.40;70.30;;;;;;5084858;28;20207;-36
2024/01/17 04:21:15;;;;;;;0.00;0.00;;;1.40;70.30;;;;;;5083868;28;20187;-35
2024/01/17 04:23:46;;;;;;;0.00;0.00;;;1.30;70.30;;;;;;5085252;28;20668;-33
2024/01/17 04:26:23;;;;;;;0.00;0.00;;;1.30;70.30;;;;;;5084873;28;20681;-34
2024/01/17 04:28:53;;;;;;;0.00;0.00;;;1.30;70.30;;;;;;5084858;28;20736;-34
2024/01/17 04:31:29;;;;;;;0.00;0.00;;;1.30;70.30;;;;;;5085049;28;20203;-35
2024/01/17 04:33:58;;;;;;;0.00;0.00;;;1.30;70.40;;;;;;5084559;28;20587;-34
2024/01/17 04:36:27;;;;;;;0.00;0.00;;;1.30;70.40;;;;;;5085118;28;20642;-36
2024/01/17 04:38:56;;;;;;;0.00;0.00;;;1.30;70.30;;;;;;5084630;28;20195;-35
2024/01/17 04:41:25;;;;;;;0.00;0.00;;;1.30;70.30;;;;;;5084778;28;20202;-34
2024/01/17 04:43:55;;;;;;;0.00;0.00;;;1.30;70.30;;;;;;5083167;28;20206;-35
2024/01/17 04:46:27;;;;;;;0.00;0.00;;;1.30;70.30;;;;;;5083085;28;20285;-35
2024/01/17 04:48:54;;;;;;;0.00;0.00;;;1.30;70.30;;;;;;5084805;28;20600;-34
2024/01/17 04:51:25;;;;;;;0.00;0.00;;;1.30;70.30;;;;;;5084762;28;20250;-34
2024/01/17 04:53:58;;;;;;;0.00;0.00;;;1.30;70.30;;;;;;5083350;28;20221;-35
2024/01/17 04:56:26;;;;;;;0.00;0.00;;;1.30;70.30;;;;;;5083312;28;20290;-34
2024/01/17 04:58:58;;;;;;;0.00;0.00;;;1.30;70.20;;;;;;5084442;28;20300;-35
2024/01/17 05:01:25;;;;;;;0.00;0.00;;;1.30;70.20;;;;;;5084721;28;20696;-34
2024/01/17 05:03:57;;;;;;;0.00;0.00;;;1.30;70.20;;;;;;5083310;28;20214;-34
2024/01/17 05:06:27;;;;;;;0.00;0.00;;;1.30;70.20;;;;;;5083125;28;20677;-35
2024/01/17 05:08:56;;;;;;;0.00;0.00;;;1.20;70.20;;;;;;5083412;28;20677;-34
2024/01/17 05:11:27;;;;;;;0.00;0.00;;;1.20;70.20;;;;;;5084818;28;20202;-35
2024/01/17 05:13:56;;;;;;;0.00;0.00;;;1.20;70.30;;;;;;5067026;28;20271;-35
2024/01/17 05:16:26;;;;;;;0.00;0.00;;;1.20;70.30;;;;;;5083125;28;20602;-35
2024/01/17 05:18:57;;;;;;;0.00;0.00;;;1.20;70.30;;;;;;5084533;28;20195;-35
2024/01/17 05:21:24;;;;;;;0.00;0.00;;;1.20;70.30;;;;;;5084620;28;20386;-35
2024/01/17 05:23:54;;;;;;;0.00;0.00;;;1.20;70.30;;;;;;5083267;28;20203;-36
2024/01/17 05:26:23;;;;;;;0.00;0.00;;;1.20;70.30;;;;;;5084216;28;20815;-36
2024/01/17 05:28:55;;;;;;;0.00;0.00;;;1.20;70.30;;;;;;5084047;28;20198;-35
2024/01/17 05:31:24;;;;;;;0.00;0.00;;;1.20;70.30;;;;;;5083038;28;20198;-34
2024/01/17 05:33:52;;;;;;;0.00;0.00;;;1.20;70.30;;;;;;5084603;28;20632;-35
2024/01/17 05:36:24;;;;;;;0.00;0.00;;;1.20;70.30;;;;;;5084072;28;20194;-34
2024/01/17 05:38:52;;;;;;;0.00;0.00;;;1.20;70.30;;;;;;5084290;28;20195;-34
2024/01/17 05:41:19;;;;;;;0.00;0.00;;;1.20;70.30;;;;;;5084386;28;20661;-34
2024/01/17 05:43:51;;;;;;;0.00;0.00;;;1.20;70.40;;;;;;5082902;28;20239;-35
2024/01/17 05:46:18;;;;;;;0.00;0.00;;;1.20;70.40;;;;;;5084308;28;20191;-35
2024/01/17 05:48:46;;;;;;;0.00;0.00;;;1.30;70.40;;;;;;5083996;28;20557;-36
2024/01/17 05:51:15;;;;;;;0.00;0.00;;;1.30;70.50;;;;;;5084213;28;20195;-34
2024/01/17 05:53:43;;;;;;;0.00;0.00;;;1.20;70.50;;;;;;5066036;28;20252;-35
2024/01/17 05:56:13;;;;;;;0.00;0.00;;;1.30;70.50;;;;;;5084656;28;20225;-34
2024/01/17 05:58:47;;;;;;;0.00;0.00;;;1.30;70.50;;;;;;5086325;28;20198;-34
2024/01/17 06:01:14;;;;;;;0.00;0.00;;;1.30;70.50;;;;;;5086685;28;20194;-34
2024/01/17 06:03:43;;;;;;;0.00;0.00;;;1.30;70.50;;;;;;5088094;28;20194;-34
2024/01/17 06:06:11;;;;;;;0.00;0.00;;;1.30;70.50;;;;;;5087799;28;20302;-34
2024/01/17 06:08:40;;;;;;;0.00;0.00;;;1.30;70.50;;;;;;5087655;28;20875;-35
2024/01/17 06:11:10;;;;;;;0.00;0.00;;;1.30;70.50;;;;;;5087953;28;20772;-34
2024/01/17 06:13:38;;;;;;;0.00;0.00;;;1.40;70.60;;;;;;5087571;28;20203;-34
2024/01/17 06:16:05;;;;;;;0.00;0.00;;;1.40;70.60;;;;;;5086193;28;20226;-34
2024/01/17 06:18:32;;;;;;;0.00;0.00;;;1.40;70.60;;;;;;5085943;28;20199;-33
2024/01/17 06:21:00;;;;;;;0.00;0.00;;;1.40;70.60;;;;;;5085724;28;20226;-34
2024/01/17 06:23:27;;;;;;;0.00;0.00;;;1.40;70.60;;;;;;5087874;28;20241;-34
2024/01/17 06:25:54;;;;;;;0.00;0.00;;;1.40;70.50;;;;;;5087162;28;20651;-35
2024/01/17 06:28:26;;;;;;;0.00;0.00;;;1.40;70.50;;;;;;5085563;28;20203;-35
2024/01/17 06:30:55;;;;;;;0.00;0.00;;;1.40;70.50;;;;;;5085298;28;20538;-34
2024/01/17 06:33:23;;;;;;;0.00;0.00;;;1.50;70.60;;;;;;5085439;28;20191;-36
2024/01/17 06:35:50;;;;;;;0.00;0.00;;;1.50;70.50;;;;;;5087213;28;20616;-35
2024/01/17 06:38:25;;;;;;;0.00;0.00;;;1.50;70.60;;;;;;5085311;28;20199;-34
2024/01/17 06:40:52;;;;;;;0.00;0.00;;;1.50;70.60;;;;;;5085405;28;20709;-34
2024/01/17 06:43:21;;;;;;;0.00;0.00;;;1.50;70.70;;;;;;5085378;28;20199;-35
2024/01/17 06:45:48;;;;;;;0.00;0.00;;;1.50;70.60;;;;;;5087063;28;20206;-35
2024/01/17 06:48:16;;;;;;;0.00;0.00;;;1.50;70.70;;;;;;5085332;28;20207;-34
2024/01/17 06:50:46;;;;;;;0.00;0.00;;;1.50;70.60;;;;;;5085323;28;20222;-34
2024/01/17 06:53:17;;;;;;;0.00;0.00;;;1.60;70.60;;;;;;5086674;28;20207;-34
2024/01/17 06:55:47;;;;;;;0.00;0.00;;;1.60;70.70;;;;;;5086966;28;20256;-35
2024/01/17 06:58:14;;;;;;;0.00;0.00;;;1.60;70.60;;;;;;5086633;28;20195;-34
2024/01/17 07:00:43;;;;;;;0.00;0.00;;;1.60;70.60;;;;;;5085066;28;20575;-34
2024/01/17 07:03:10;;;;;;;0.00;0.00;;;1.60;71.50;;;;;;5085534;28;20197;-34
2024/01/17 07:05:43;;;;;;;0.00;0.00;;;1.60;70.60;;;;;;5086578;28;20215;-34
2024/01/17 07:08:13;;;;;;;0.00;0.00;;;1.60;70.60;;;;;;5083871;28;20323;-35
2024/01/17 07:10:42;;;;;;;0.00;0.00;;;1.70;70.70;;;;;;5086433;28;20191;-34
2024/01/17 07:13:10;;;;;;;0.00;0.00;;;1.70;70.70;;;;;;5086304;28;20221;-35
2024/01/17 07:15:37;;;;;;;0.00;0.00;;;1.70;70.70;;;;;;5084895;28;20662;-35
2024/01/17 07:18:07;;;;;;;0.00;0.00;;;1.70;70.70;;;;;;5085096;28;20593;-36
2024/01/17 07:20:34;;;;;;;0.00;0.00;;;1.70;70.70;;;;;;5085671;28;20202;-35
2024/01/17 07:23:03;;;;;;;0.00;0.00;;;1.70;70.70;;;;;;5084375;28;20502;-35
2024/01/17 07:25:33;;;;;;;0.00;0.00;;;1.70;70.70;;;;;;5085834;28;20237;-36
2024/01/17 07:28:05;;;;;;;0.00;0.00;;;1.80;70.70;;;;;;5086199;28;20235;-35
2024/01/17 07:30:35;;;;;;;0.00;0.00;;;1.70;70.60;;;;;;5085463;28;20201;-35
2024/01/17 07:33:03;;;;;;;0.00;0.00;;;1.80;70.70;;;;;;5084559;28;20534;-34
2024/01/17 07:35:30;;;;;;;0.00;0.00;;;1.80;70.70;;;;;;5084235;28;20223;-35
2024/01/17 07:38:01;;;;;;;0.00;0.00;;;1.80;70.70;;;;;;5084280;28;20555;-35
2024/01/17 07:40:28;;;;;;;0.00;0.00;;;1.80;70.70;;;;;;5084354;28;20195;-34
2024/01/17 07:43:00;;;;;;;0.00;0.00;;;1.80;70.70;;;;;;5083842;28;20234;-35
2024/01/17 07:45:29;;;;;;;0.00;0.00;;;1.80;70.70;;;;;;5084220;28;20206;-35
2024/01/17 07:47:57;;;;;;;0.00;0.00;;;1.90;70.70;;;;;;5084540;28;20227;-35
2024/01/17 07:50:24;;;;;;;0.00;0.00;;;1.90;70.80;;;;;;5085943;28;20244;-36
2024/01/17 07:52:52;;;;;;;0.00;0.00;;;1.90;70.80;;;;;;5084278;28;20195;-36
2024/01/17 07:55:21;;;;;;;0.00;0.00;;;1.90;70.70;;;;;;5084019;28;20215;-35
2024/01/17 07:57:50;;;;;;;0.00;0.00;;;1.90;70.70;;;;;;5085804;28;20301;-35
2024/01/17 08:00:20;;;;;;;0.00;0.00;;;1.90;70.70;;;;;;5085653;28;20293;-34
2024/01/17 08:02:50;;;;;;;0.00;0.00;;;1.90;70.70;;;;;;5083944;28;20214;-36
2024/01/17 08:05:20;;;;;;;0.00;0.00;;;2.00;70.70;;;;;;5085371;28;21040;-35
2024/01/17 08:07:47;;;;;;;0.00;0.00;;;2.00;70.70;;;;;;5085604;28;20463;-35
2024/01/17 08:10:15;;;;;;;0.00;0.00;;;2.00;70.70;;;;;;5083708;28;20233;-35
2024/01/17 08:12:42;;;;;;;0.00;0.00;;;2.00;70.70;;;;;;5084997;28;20234;-34
2024/01/17 08:15:11;;;;;;;0.00;0.00;;;2.00;70.70;;;;;;5084923;28;20219;-34
2024/01/17 08:17:41;;;;;;;0.00;0.00;;;2.00;70.70;;;;;;5085320;28;20198;-34
2024/01/17 08:20:12;;;;;;;0.00;0.00;;;2.00;70.70;;;;;;5084966;28;20684;-35
2024/01/17 08:22:43;;;;;;;0.00;0.00;;;2.10;70.80;;;;;;5084610;28;20203;-34
2024/01/17 08:25:10;;;;;;;0.00;0.00;;;2.10;70.80;;;;;;5084755;28;20239;-36
2024/01/17 08:27:38;;;;;;;0.00;0.00;;;2.10;70.80;;;;;;5066726;28;20734;-35
2024/01/17 08:30:09;;;;;;;0.00;0.00;;;2.10;70.90;;;;;;5085034;28;20512;-35
2024/01/17 08:32:39;;;;;;;0.00;0.00;;;2.20;70.90;;;;;;5084837;28;20202;-35
2024/01/17 08:35:09;;;;;;;0.00;0.00;;;2.10;70.80;;;;;;5082892;28;20310;-35
2024/01/17 08:37:37;;;;;;;0.00;0.00;;;2.20;70.90;;;;;;5067170;28;20234;-35
2024/01/17 08:40:07;;;;;;;0.00;0.00;;;2.20;70.90;;;;;;5083574;28;20203;-36
2024/01/17 08:42:34;;;;;;;0.00;0.00;;;2.20;70.90;;;;;;5084905;28;20243;-35
2024/01/17 08:45:05;;;;;;;0.00;0.00;;;2.20;70.90;;;;;;5083850;28;20198;-35
2024/01/17 08:47:32;;;;;;;0.00;0.00;;;2.30;70.90;;;;;;5083401;28;20198;-35
2024/01/17 08:50:03;;;;;;;0.00;0.00;;;2.30;70.90;;;;;;5085295;28;20309;-35
2024/01/17 08:52:30;;;;;;;0.00;0.00;;;2.30;70.90;;;;;;5083595;28;20206;-34
2024/01/17 08:55:01;;;;;;;0.00;0.00;;;2.30;70.90;;;;;;5083042;28;20218;-35
2024/01/17 08:57:33;;;;;;;0.00;0.00;;;2.30;70.90;;;;;;5084568;28;20684;-35
2024/01/17 09:00:00;;;;;;;0.00;0.00;;;2.40;71.00;;;;;;5082943;28;20195;-35
2024/01/17 09:02:28;;;;;;;0.00;0.00;;;2.40;71.00;;;;;;5083531;28;20712;-35
2024/01/17 09:04:55;;;;;;;0.00;0.00;;;2.40;71.00;;;;;;5084446;28;20205;-35
2024/01/17 09:07:25;;;;;;;0.00;0.00;;;2.50;71.10;;;;;;5084191;28;20198;-35
2024/01/17 09:09:57;;;;;;;0.00;0.00;;;2.50;71.20;;;;;;5083301;28;20284;-34
2024/01/17 09:12:24;;;;;;;0.00;0.00;;;2.50;71.10;;;;;;5066273;28;20685;-35
2024/01/17 09:14:54;;;;;;;0.00;0.00;;;2.60;71.10;;;;;;5084699;28;20211;-36
2024/01/17 09:17:23;;;;;;;0.00;0.00;;;2.60;71.10;;;;;;5082652;28;20768;-35
2024/01/17 09:19:53;;;;;;;0.00;0.00;;;2.60;71.00;;;;;;5082761;28;20190;-35
2024/01/17 09:22:20;;;;;;;0.00;0.00;;;2.60;71.00;;;;;;5084724;28;20286;-34
2024/01/17 09:24:52;;;;;;;0.00;0.00;;;2.60;71.00;;;;;;5082569;28;20370;-35
2024/01/17 09:27:19;;;;;;;0.00;0.00;;;2.70;71.10;;;;;;5066797;28;20199;-35
2024/01/17 09:29:49;;;;;;;0.00;0.00;;;2.70;71.10;;;;;;5082806;28;20318;-34
2024/01/17 09:32:17;;;;;;;0.00;0.00;;;2.70;71.10;;;;;;5087232;28;20293;-34
2024/01/17 09:34:50;;;;;;;0.00;0.00;;;2.70;71.10;;;;;;5088233;28;20195;-35
2024/01/17 09:37:18;;;;;;;0.00;0.00;;;2.80;71.10;;;;;;5070246;28;20191;-34
2024/01/17 09:39:45;;;;;;;0.00;0.00;;;2.80;71.10;;;;;;5087011;28;20294;-35
2024/01/17 09:42:14;;;;;;;0.00;0.00;;;2.80;71.00;;;;;;5088539;28;20199;-35
2024/01/17 09:44:44;;;;;;;0.00;0.00;;;2.80;71.10;;;;;;5088495;28;20289;-34
2024/01/17 09:47:17;;;;;;;0.00;0.00;;;2.90;71.10;;;;;;5086631;28;20195;-34
2024/01/17 09:49:50;;;;;;;0.00;0.00;;;2.80;71.00;;;;;;5088086;28;20195;-34
2024/01/17 09:52:21;;;;;;;0.00;0.00;;;2.90;71.10;;;;;;5087919;28;20711;-34
2024/01/17 09:54:51;;;;;;;0.00;0.00;;;2.90;71.00;;;;;;5087882;28;20563;-35
2024/01/17 09:57:28;;;;;;;0.00;0.00;;;2.90;71.10;;;;;;5086062;28;20195;-36
2024/01/17 10:00:07;;;;;;;0.00;0.00;;;2.90;71.10;;;;;;5086306;28;20211;-35
2024/01/17 10:02:38;;;;;;;0.00;0.00;;;2.90;71.10;;;;;;5088064;28;20586;-35
2024/01/17 10:05:09;;;;;;;0.00;0.00;;;2.90;71.10;;;;;;5087910;28;20188;-35
2024/01/17 10:07:37;;;;;;;0.00;0.00;;;2.90;71.10;;;;;;5086111;28;20268;-34
2024/01/17 10:10:08;;;;;;;0.00;0.00;;;2.90;71.10;;;;;;5087485;28;20740;-35
2024/01/17 10:12:37;;;;;;;0.00;0.00;;;3.00;71.10;;;;;;5086131;28;20492;-34
2024/01/17 10:15:12;;;;;;;0.00;0.00;;;3.00;71.00;;;;;;5087207;28;20187;-34
2024/01/17 10:17:46;;;;;;;0.00;0.00;;;3.00;70.90;;;;;;5087397;28;20282;-35
2024/01/17 10:20:13;;;;;;;0.00;0.00;;;3.00;70.90;;;;;;5085937;28;20765;-36
2024/01/17 10:22:41;;;;;;;0.00;0.00;;;3.00;71.00;;;;;;5085902;28;20198;-34
2024/01/17 10:25:11;;;;;;;0.00;0.00;;;3.00;71.00;;;;;;5087358;28;20242;-34
2024/01/17 10:27:41;;;;;;;0.00;0.00;;;3.00;71.00;;;;;;5085518;28;20223;-34
2024/01/17 10:30:10;;;;;;;0.00;0.00;;;3.00;71.00;;;;;;5085779;28;20740;-35
2024/01/17 10:32:41;;;;;;;0.00;0.00;;;3.00;71.10;;;;;;5069775;28;20910;-34
2024/01/17 10:35:19;;;;;;;0.00;0.00;;;3.00;71.10;;;;;;5085677;28;20191;-35
2024/01/17 10:37:46;;;;;;;0.00;0.00;;;3.00;71.00;;;;;;5085823;28;20736;-34
2024/01/17 10:40:14;;;;;;;0.00;0.00;;;3.00;71.10;;;;;;5085844;28;20190;-35
2024/01/17 10:42:41;;;;;;;0.00;0.00;;;3.00;71.10;;;;;;5087157;28;20608;-35
2024/01/17 10:45:20;;;;;;;0.00;0.00;;;3.00;71.10;;;;;;5085519;28;20256;-35
2024/01/17 10:47:50;;;;;;;0.00;0.00;;;3.00;71.10;;;;;;5086793;28;20738;-34
2024/01/17 10:50:17;;;;;;;0.00;0.00;;;3.00;71.10;;;;;;5085454;28;20210;-35
2024/01/17 10:52:46;;;;;;;0.00;0.00;;;3.00;71.10;;;;;;5068590;28;20229;-35
2024/01/17 10:55:20;;;;;;;0.00;0.00;;;3.10;71.20;;;;;;5085047;28;20199;-34
2024/01/17 10:57:50;;;;;;;0.00;0.00;;;3.10;71.20;;;;;;5086825;28;20197;-35
2024/01/17 11:00:29;;;;;;;0.00;0.00;;;3.10;71.20;;;;;;5085292;28;20187;-35
2024/01/17 11:03:08;;;;;;;0.00;0.00;;;3.00;71.00;;;;;;5086510;28;20568;-35
2024/01/17 11:05:48;;;;;;;0.00;0.00;;;3.00;70.90;;;;;;5085053;28;20619;-35
2024/01/17 11:08:18;;;;;;;0.00;0.00;;;3.00;71.00;;;;;;5086478;28;20215;-34
2024/01/17 11:10:50;;;;;;;0.00;0.00;;;3.00;70.90;;;;;;5086660;28;20203;-35
2024/01/17 11:13:21;;;;;;;0.00;0.00;;;3.00;70.90;;;;;;5068638;28;20728;-35
2024/01/17 11:15:54;;;;;;;0.00;0.00;;;2.90;70.90;;;;;;5086467;28;20207;-36
2024/01/17 11:18:25;;;;;;;0.00;0.00;;;2.90;70.90;;;;;;5067853;28;20767;-35
2024/01/17 11:20:54;;;;;;;0.00;0.00;;;2.90;70.90;;;;;;5085882;28;20210;-35
2024/01/17 11:23:49;;;;;;;0.00;0.00;;;2.90;70.90;;;;;;5085949;28;20215;-34
2024/01/17 11:26:25;;;;;;;0.00;0.00;;;2.80;70.90;;;;;;5084306;28;20238;-35
2024/01/17 11:29:07;;;;;;;0.00;0.00;;;2.80;70.90;;;;;;5086683;28;20213;-34
2024/01/17 11:32:11;;;;;;;0.00;0.00;;;2.80;70.90;;;;;;5086241;28;20749;-35
2024/01/17 11:34:43;;;;;;;0.00;0.00;;;2.80;70.90;;;;;;5085561;28;20218;-34
2024/01/17 11:37:33;;;;;;;0.00;0.00;;;2.70;70.90;;;;;;5085957;28;20248;-34
2024/01/17 11:40:04;;;;;;;0.00;0.00;;;2.70;71.80;;;;;;5085777;28;20255;-33
2024/01/17 11:42:31;;;;;;;0.00;0.00;;;2.60;70.90;;;;;;5085831;28;20225;-33
2024/01/17 11:44:58;;;;;;;0.00;0.00;;;2.60;71.00;;;;;;5084106;28;20256;-31
2024/01/17 11:47:55;;;;;;;0.00;0.00;;;2.70;71.00;;;;;;5085631;28;20198;-32
2024/01/17 11:50:23;;;;;;;0.00;0.00;;;2.60;71.00;;;;;;5085710;28;20215;-32
2024/01/17 11:52:55;;;;;;;0.00;0.00;;;2.60;71.00;;;;;;5086363;28;20195;-33
2024/01/17 11:55:32;;;;;;;0.00;0.00;;;2.60;71.10;;;;;;5083776;28;20191;-34
2024/01/17 11:58:00;;;;;;;0.00;0.00;;;2.60;71.10;;;;;;5085251;28;20299;-34
2024/01/17 12:00:34;;;;;;;0.00;0.00;;;2.60;71.10;;;;;;5085605;28;20509;-35
2024/01/17 12:03:02;;;;;;;0.00;0.00;;;2.60;71.10;;;;;;5085464;28;20211;-33
2024/01/17 12:05:36;;;;;;;0.00;0.00;;;2.60;71.10;;;;;;5084943;28;20199;-34
2024/01/17 12:08:06;;;;;;;0.00;0.00;;;2.60;71.10;;;;;;5085708;28;20549;-33
2024/01/17 12:10:33;;;;;;;0.00;0.00;;;2.60;71.10;;;;;;5083596;28;20274;-34
2024/01/17 12:13:03;;;;;;;0.00;0.00;;;2.60;71.10;;;;;;5085110;28;20207;-34
2024/01/17 12:15:30;;;;;;;0.00;0.00;;;2.60;71.20;;;;;;5084926;28;20217;-34
2024/01/17 12:18:03;;;;;;;0.00;0.00;;;2.60;71.20;;;;;;5084806;28;20657;-33
2024/01/17 12:20:31;;;;;;;0.00;0.00;;;2.60;71.20;;;;;;5085312;28;20373;-33
2024/01/17 12:22:58;;;;;;;0.00;0.00;;;2.60;71.30;;;;;;5067134;28;20658;-32
2024/01/17 12:25:35;;;;;;;0.00;0.00;;;2.60;71.40;;;;;;5085041;28;20231;-33
2024/01/17 12:28:03;;;;;;;0.00;0.00;;;2.60;71.40;;;;;;5083494;28;20423;-33
2024/01/17 12:30:33;;;;;;;0.00;0.00;;;2.60;71.40;;;;;;5083541;28;21107;-33
2024/01/17 12:33:05;;;;;;;0.00;0.00;;;2.70;71.50;;;;;;5085501;28;20642;-34
2024/01/17 12:35:32;;;;;;;0.00;0.00;;;2.70;71.50;;;;;;5083331;28;20203;-33
2024/01/17 12:38:04;;;;;;;0.00;0.00;;;2.70;72.30;;;;;;5084827;28;20655;-34
2024/01/17 12:40:36;;;;;;;0.00;0.00;;;2.70;71.60;;;;;;5084888;28;20190;-33
2024/01/17 12:43:04;;;;;;;0.00;0.00;;;2.80;71.60;;;;;;5084911;28;20209;-32
2024/01/17 12:45:32;;;;;;;0.00;0.00;;;2.80;71.60;;;;;;5082931;28;20202;-33
2024/01/17 12:48:02;;;;;;;0.00;0.00;;;2.80;71.70;;;;;;5084664;28;20581;-34
2024/01/17 12:50:33;;;;;;;0.00;0.00;;;2.80;71.70;;;;;;5084922;28;20191;-33
2024/01/17 12:53:05;;;;;;;0.00;0.00;;;2.90;71.80;;;;;;5084802;28;20751;-33
2024/01/17 12:55:32;;;;;;;0.00;0.00;;;2.90;71.70;;;;;;5082815;28;20294;-33
2024/01/17 12:57:59;;;;;;;0.00;0.00;;;2.90;71.60;;;;;;5082621;28;20317;-32
2024/01/17 13:00:27;;;;;;;0.00;0.00;;;2.90;71.60;;;;;;5084410;28;20198;-32
2024/01/17 13:02:55;;;;;;;0.00;0.00;;;2.90;71.50;;;;;;5083146;28;20684;-33
2024/01/17 13:05:25;;;;;;;0.00;0.00;;;2.90;71.50;;;;;;5083221;28;20205;-34
2024/01/17 13:07:52;;;;;;;0.00;0.00;;;2.90;71.50;;;;;;5088258;28;20779;-34
2024/01/17 13:10:23;;;;;;;0.00;0.00;;;2.90;71.50;;;;;;5070716;28;20229;-34